CheckWX is a tool to help pilots better visualize weather data.  It is not intended as a substitute for an official pre-flight weather briefing.

06:53:36 UTC

KNUW METAR
Whidbey Island NAS / Ault Field Airport
Oak Harbor, Washington, USA
Current

58 mins ago

KNUW 290556Z 25005KT 10SM SCT140 BKN170 BKN250 12/09 A2998 RMK AO2 SLP151 T01220089 10217 20122 50001
Observed
May-29 @ 05:56 UTC
Wind
  • 250° at 5 KTS
Visibility
Flight Rules
VFR
Cloud Levels
  • Scattered at 14,000' AGL
  • Broken at 17,000' AGL
  • Broken at 25,000' AGL
Temperature
12°C / 54°F
Dewpoint
C / 48°F
Humidity
82%
Altimeter
29.98" Hg
Pressure
1015.22 hPa
Previous

2 hours ago

KNUW 290456Z 24004KT 10SM SCT120 BKN140 BKN210 BKN250 13/09 A2998 RMK AO2 SLP152 T01330089
Observed
May-29 @ 04:56 UTC
Wind
  • 240° at 4 KTS
Visibility
Flight Rules
VFR
Cloud Levels
  • Scattered at 12,000' AGL
  • Broken at 14,000' AGL
  • Broken at 21,000' AGL
  • Broken at 25,000' AGL
Temperature
13°C / 55°F
Dewpoint
C / 48°F
Humidity
77%
Altimeter
29.98" Hg
Pressure
1015.22 hPa
Previous

3 hours ago

KNUW 290356Z 29004KT 10SM BKN150 BKN250 14/09 A2998 RMK AO2 SLP150 T01390089
Observed
May-29 @ 03:56 UTC
Wind
  • 290° at 4 KTS
Visibility
Flight Rules
VFR
Cloud Levels
  • Broken at 15,000' AGL
  • Broken at 25,000' AGL
Temperature
14°C / 57°F
Dewpoint
C / 48°F
Humidity
72%
Altimeter
29.98" Hg
Pressure
1015.22 hPa